Time;durP1;ratioP1;P1;durP2;ratioP2;P2;SDS_P1;SDS_P2;PMS_P1;PMS_P2;Temp;Humidity;BMP_temperature;BMP_pressure;BME280_temperature;BME280_humidity;BME280_pressure;Samples;Min_cycle;Max_cycle;Signal;HPM_P1;HPM_P2
2021/07/10 00:00:55;;;;;;;57.33;23.40;;;;;;;28.46;42.71;101232.44;5008198;28;20501;-47
2021/07/10 00:03:24;;;;;;;46.60;24.07;;;;;;;27.95;43.73;101227.47;5015569;28;20803;-44
2021/07/10 00:05:55;;;;;;;46.63;24.87;;;;;;;28.42;42.71;101229.00;5015421;28;20464;-48
2021/07/10 00:08:29;;;;;;;50.20;24.93;;;;;;;28.13;43.08;101226.16;4995582;28;20499;-44
2021/07/10 00:10:57;;;;;;;50.50;26.40;;;;;;;27.67;44.20;101228.09;4983826;28;20477;-48
2021/07/10 00:13:24;;;;;;;65.43;28.10;;;;;;;27.82;44.53;101224.22;5015611;28;20496;-46
2021/07/10 00:15:52;;;;;;;54.03;25.13;;;;;;;27.14;45.87;101218.59;5015484;28;20461;-48
2021/07/10 00:18:20;;;;;;;50.40;25.83;;;;;;;27.31;45.21;101220.91;5015123;28;20462;-48
2021/07/10 00:20:49;;;;;;;58.30;26.27;;;;;;;27.29;45.84;101217.44;5015354;28;20474;-51
2021/07/10 00:23:17;;;;;;;61.40;27.10;;;;;;;27.41;44.75;101213.63;5013790;28;20489;-48
2021/07/10 00:25:44;;;;;;;63.13;27.47;;;;;;;27.23;45.98;101214.91;5015214;28;20454;-45
2021/07/10 00:28:12;;;;;;;50.00;23.47;;;;;;;27.08;45.46;101206.34;5014101;28;20782;-45
2021/07/10 00:30:39;;;;;;;53.00;25.63;;;;;;;27.69;44.18;101206.88;5012169;28;20481;-45
2021/07/10 00:33:07;;;;;;;69.80;27.33;;;;;;;27.83;44.87;101204.75;5014072;28;20484;-45
2021/07/10 00:35:36;;;;;;;56.67;27.40;;;;;;;27.72;44.60;101204.13;5015527;28;20464;-48
2021/07/10 00:38:04;;;;;;;61.20;26.43;;;;;;;27.90;44.22;101206.34;5015986;28;20764;-47
2021/07/10 00:40:32;;;;;;;67.73;26.57;;;;;;;28.01;43.76;101203.47;5015339;28;20489;-44
2021/07/10 00:43:00;;;;;;;50.80;25.97;;;;;;;27.60;44.28;101195.59;5014450;28;20485;-46
2021/07/10 00:45:27;;;;;;;58.83;27.43;;;;;;;28.01;43.57;101192.88;5015149;28;20457;-46
2021/07/10 00:47:55;;;;;;;59.40;26.17;;;;;;;27.45;44.99;101185.28;5014593;28;20485;-45
2021/07/10 00:50:24;;;;;;;59.77;29.47;;;;;;;27.83;43.88;101183.56;5015429;28;20477;-46
2021/07/10 00:52:52;;;;;;;68.03;28.17;;;;;;;27.68;43.56;101189.25;5014299;28;20915;-46
2021/07/10 00:55:22;;;;;;;57.33;26.90;;;;;;;27.50;44.65;101173.69;5017797;28;20464;-46
2021/07/10 00:57:51;;;;;;;66.70;27.57;;;;;;;27.54;44.34;101179.81;5018322;28;20479;-47
2021/07/10 01:00:21;;;;;;;55.80;26.57;;;;;;;27.31;44.33;101175.00;5018785;28;20801;-49
2021/07/10 01:02:50;;;;;;;46.30;25.20;;;;;;;27.68;44.20;101168.91;5018172;28;20480;-45
2021/07/10 01:05:21;;;;;;;54.80;25.90;;;;;;;27.50;43.87;101163.09;5018960;28;20552;-47
2021/07/10 01:07:48;;;;;;;52.07;25.97;;;;;;;27.32;44.43;101164.38;5022853;28;20494;-45
2021/07/10 01:10:16;;;;;;;59.67;26.33;;;;;;;27.22;44.43;101162.84;5019353;28;20480;-45
2021/07/10 01:12:47;;;;;;;55.23;26.70;;;;;;;27.20;43.79;101164.63;5021422;28;20487;-46
2021/07/10 01:15:16;;;;;;;51.07;25.63;;;;;;;27.29;44.12;101164.47;5020047;28;20465;-45
2021/07/10 01:17:46;;;;;;;57.27;23.93;;;;;;;26.82;45.19;101156.59;5022495;28;20484;-45
2021/07/10 01:20:15;;;;;;;58.23;25.50;;;;;;;27.26;44.51;101156.56;5019626;28;20481;-44
2021/07/10 01:22:45;;;;;;;56.73;24.97;;;;;;;27.11;44.11;101155.13;5021646;28;20496;-45
2021/07/10 01:25:14;;;;;;;48.97;25.00;;;;;;;26.78;44.47;101152.25;5019416;28;20468;-44
2021/07/10 01:27:42;;;;;;;49.30;24.73;;;;;;;27.04;44.10;101154.41;5017420;28;20486;-48
2021/07/10 01:30:13;;;;;;;49.77;25.30;;;;;;;27.09;44.43;101152.53;5018525;28;20480;-46
2021/07/10 01:32:42;;;;;;;52.67;24.93;;;;;;;26.80;45.14;101146.03;5013435;28;20490;-45
2021/07/10 01:35:11;;;;;;;47.50;24.80;;;;;;;26.83;44.63;101150.38;4980711;28;20458;-46
2021/07/10 01:37:41;;;;;;;54.17;23.80;;;;;;;27.13;43.88;101136.56;4980931;28;20494;-45
2021/07/10 01:40:13;;;;;;;56.33;26.63;;;;;;;27.17;43.40;101138.25;4980853;28;20477;-44
2021/07/10 01:42:41;;;;;;;50.80;25.50;;;;;;;26.76;44.82;101135.53;4982064;28;20514;-45
2021/07/10 01:45:10;;;;;;;48.80;25.27;;;;;;;27.17;43.73;101138.25;4980404;28;20786;-44
2021/07/10 01:47:37;;;;;;;50.73;25.00;;;;;;;27.20;44.04;101138.16;4973738;28;20478;-44
2021/07/10 01:50:08;;;;;;;56.00;25.20;;;;;;;26.86;45.02;101133.56;4998552;28;20507;-46
2021/07/10 01:52:39;;;;;;;51.63;25.57;;;;;;;26.99;44.36;101124.50;4999838;28;20499;-44
2021/07/10 01:55:10;;;;;;;56.87;25.53;;;;;;;26.79;44.16;101133.69;5000107;28;20463;-45
2021/07/10 01:57:39;;;;;;;57.87;26.03;;;;;;;26.69;44.52;101132.13;4997361;28;20488;-45
2021/07/10 02:00:09;;;;;;;55.40;26.77;;;;;;;27.40;43.26;101132.44;5000313;28;20496;-46
2021/07/10 02:02:36;;;;;;;49.63;25.17;;;;;;;27.29;43.44;101122.09;5000031;28;20483;-45
2021/07/10 02:05:05;;;;;;;51.40;26.33;;;;;;;27.30;43.53;101113.22;4999940;28;20507;-44
2021/07/10 02:07:33;;;;;;;53.93;25.07;;;;;;;26.89;44.40;101118.50;4994719;28;20483;-44
2021/07/10 02:10:00;;;;;;;58.53;26.23;;;;;;;27.14;43.94;101117.13;4998035;28;20481;-44
2021/07/10 02:12:28;;;;;;;53.30;24.17;;;;;;;26.93;43.78;101119.34;4984411;28;20480;-47
2021/07/10 02:14:57;;;;;;;52.13;25.83;;;;;;;27.27;43.83;101115.94;4998025;28;20772;-44
2021/07/10 02:17:25;;;;;;;52.30;24.30;;;;;;;27.05;43.73;101107.59;4998480;28;20490;-46
2021/07/10 02:19:52;;;;;;;52.27;25.50;;;;;;;27.04;43.80;101106.75;5001383;28;20488;-44
2021/07/10 02:22:20;;;;;;;50.33;27.00;;;;;;;27.32;43.56;101099.97;5000618;28;20492;-44
2021/07/10 02:24:47;;;;;;;54.33;25.93;;;;;;;26.77;44.04;101103.72;5001840;28;20483;-45
2021/07/10 02:27:15;;;;;;;52.33;25.53;;;;;;;26.83;44.56;101103.59;4996713;28;20486;-46
2021/07/10 02:29:42;;;;;;;59.63;26.70;;;;;;;26.91;44.54;101099.97;5002470;28;20487;-45
2021/07/10 02:32:12;;;;;;;54.77;27.63;;;;;;;27.12;43.97;101103.06;4996809;28;20493;-45
2021/07/10 02:34:39;;;;;;;61.77;26.17;;;;;;;27.06;43.85;101104.03;5002803;28;20515;-44
2021/07/10 02:37:07;;;;;;;58.13;25.60;;;;;;;26.73;43.90;101099.41;4995376;28;20509;-44
2021/07/10 02:39:34;;;;;;;50.47;25.23;;;;;;;26.29;45.06;101102.03;4997521;28;20480;-44
2021/07/10 02:42:02;;;;;;;45.03;25.27;;;;;;;26.30;45.18;101109.06;4996168;28;20940;-45
2021/07/10 02:44:30;;;;;;;51.00;25.57;;;;;;;26.29;45.16;101102.91;4998071;28;20484;-45
2021/07/10 02:46:57;;;;;;;53.37;23.57;;;;;;;25.99;45.47;101097.22;4991859;28;20490;-45
2021/07/10 02:49:26;;;;;;;44.50;22.83;;;;;;;26.37;44.56;101094.84;5004527;28;20465;-44
2021/07/10 02:51:54;;;;;;;52.60;25.93;;;;;;;26.93;44.29;101098.16;4989019;28;20502;-44
2021/07/10 02:54:22;;;;;;;48.00;24.23;;;;;;;26.61;44.27;101102.31;5004859;28;20460;-46
2021/07/10 02:56:50;;;;;;;51.27;25.13;;;;;;;26.46;44.63;101098.19;4995446;28;20491;-45
2021/07/10 02:59:17;;;;;;;50.27;23.10;;;;;;;26.45;44.62;101096.47;4997135;28;20472;-44
2021/07/10 03:01:45;;;;;;;50.13;26.10;;;;;;;26.56;44.66;101102.41;4990627;28;20485;-45
2021/07/10 03:04:12;;;;;;;52.77;26.33;;;;;;;26.69;44.79;101097.72;5005645;28;20496;-48
2021/07/10 03:06:41;;;;;;;54.43;25.60;;;;;;;26.80;44.10;101098.38;4987218;28;20579;-45
2021/07/10 03:09:09;;;;;;;51.50;26.10;;;;;;;26.66;44.64;101096.00;5006167;28;20462;-45
2021/07/10 03:11:37;;;;;;;52.53;26.57;;;;;;;26.87;44.01;101087.66;4995567;28;20932;-45
2021/07/10 03:14:04;;;;;;;53.30;26.43;;;;;;;26.84;43.69;101085.97;4996961;28;20470;-45
2021/07/10 03:16:32;;;;;;;40.00;20.20;;;;;;;25.82;45.85;101101.94;4994798;28;20496;-44
2021/07/10 03:18:59;;;;;;;48.30;22.47;;;;;;;26.21;45.38;101099.50;4996486;28;20550;-46
2021/07/10 03:21:27;;;;;;;55.10;26.17;;;;;;;27.17;43.04;101101.19;4995177;28;20478;-44
2021/07/10 03:23:56;;;;;;;45.43;22.73;;;;;;;25.98;45.41;101098.13;4996756;28;20461;-45
2021/07/10 03:26:23;;;;;;;49.60;24.90;;;;;;;26.44;44.58;101092.94;4995165;28;20797;-44
2021/07/10 03:28:51;;;;;;;54.90;25.70;;;;;;;26.79;43.91;101096.66;4996470;28;20904;-46
2021/07/10 03:31:18;;;;;;;44.37;21.57;;;;;;;26.66;44.34;101092.50;4994967;28;20486;-44
2021/07/10 03:33:47;;;;;;;60.67;24.53;;;;;;;27.27;43.25;101105.34;4996776;28;20464;-44
2021/07/10 03:36:14;;;;;;;49.70;23.03;;;;;;;26.54;44.68;101097.16;4995242;28;20787;-47
2021/07/10 03:38:44;;;;;;;49.23;23.20;;;;;;;26.73;43.97;101094.13;4999147;28;20768;-45
2021/07/10 03:41:14;;;;;;;48.53;24.10;;;;;;;26.96;44.07;101104.25;4995753;28;20477;-46
2021/07/10 03:43:42;;;;;;;45.70;22.60;;;;;;;26.61;44.49;101107.59;4996537;28;20470;-45
2021/07/10 03:46:09;;;;;;;52.53;23.40;;;;;;;26.55;44.40;101100.66;4994878;28;20492;-45
2021/07/10 03:48:37;;;;;;;48.73;23.80;;;;;;;26.68;44.83;101096.88;4996646;28;20474;-45
2021/07/10 03:51:05;;;;;;;44.80;23.27;;;;;;;26.15;45.46;101107.56;4995170;28;20481;-44
2021/07/10 03:53:33;;;;;;;43.50;23.00;;;;;;;26.83;43.77;101108.88;4996196;28;20767;-46
2021/07/10 03:56:01;;;;;;;44.83;23.20;;;;;;;26.60;44.42;101112.00;4994988;28;20454;-47
2021/07/10 03:58:30;;;;;;;42.63;21.10;;;;;;;26.49;45.13;101114.00;4996003;28;20581;-45
2021/07/10 04:00:57;;;;;;;37.03;19.33;;;;;;;26.11;45.70;101113.78;4995207;28;20487;-47
2021/07/10 04:03:25;;;;;;;42.20;21.60;;;;;;;26.79;44.08;101111.63;4996102;28;20491;-45
2021/07/10 04:05:53;;;;;;;49.07;22.77;;;;;;;27.19;43.03;101109.94;4995508;28;20588;-50
2021/07/10 04:08:21;;;;;;;36.90;20.90;;;;;;;26.72;43.74;101110.03;4995012;28;20556;-46
2021/07/10 04:10:48;;;;;;;33.50;19.80;;;;;;;26.76;44.07;101111.72;4995976;28;20479;-46
2021/07/10 04:13:16;;;;;;;34.40;20.50;;;;;;;26.76;44.10;101112.56;4990507;28;21002;-44
2021/07/10 04:15:45;;;;;;;39.70;19.90;;;;;;;26.93;43.61;101106.09;4998193;28;20466;-49
2021/07/10 04:18:12;;;;;;;36.37;19.83;;;;;;;26.74;44.12;101111.75;4990567;28;20503;-47
2021/07/10 04:20:40;;;;;;;38.33;18.60;;;;;;;26.67;43.81;101096.91;4996071;28;20489;-45
2021/07/10 04:23:07;;;;;;;29.77;17.10;;;;;;;26.10;44.74;101107.63;4994267;28;20484;-45
2021/07/10 04:25:35;;;;;;;33.73;18.30;;;;;;;26.49;44.52;101103.41;4995517;28;20782;-45
2021/07/10 04:28:03;;;;;;;38.57;19.10;;;;;;;26.33;45.02;101108.13;4983857;28;20482;-46
2021/07/10 04:30:31;;;;;;;39.47;19.17;;;;;;;26.59;44.16;101106.78;4999878;28;20486;-47
2021/07/10 04:32:59;;;;;;;30.30;17.20;;;;;;;26.58;44.16;101108.53;4998477;28;20495;-46
2021/07/10 04:35:27;;;;;;;33.70;17.90;;;;;;;26.56;44.09;101110.34;4999497;28;20483;-44
2021/07/10 04:37:55;;;;;;;40.97;18.30;;;;;;;26.92;43.62;101113.16;4998476;28;20565;-45
2021/07/10 04:40:23;;;;;;;32.27;18.00;;;;;;;26.90;43.23;101109.66;4999667;28;20556;-45
2021/07/10 04:42:50;;;;;;;32.47;18.23;;;;;;;26.73;43.73;101112.66;4998534;28;20488;-45
2021/07/10 04:45:18;;;;;;;28.80;18.23;;;;;;;26.48;44.13;101123.72;4999649;28;20483;-44
2021/07/10 04:47:45;;;;;;;35.67;18.47;;;;;;;26.61;44.33;101104.97;5002687;28;20499;-45
2021/07/10 04:50:15;;;;;;;30.73;17.43;;;;;;;26.44;43.92;101115.88;5002298;28;20490;-44
2021/07/10 04:52:43;;;;;;;28.57;16.13;;;;;;;26.06;45.81;101120.91;4998029;28;20490;-44
2021/07/10 04:55:12;;;;;;;34.53;18.30;;;;;;;26.79;43.93;101109.88;4999592;28;20463;-45
2021/07/10 04:57:40;;;;;;;31.97;17.63;;;;;;;26.60;44.09;101127.03;4997816;28;20480;-46
2021/07/10 05:00:09;;;;;;;30.97;17.33;;;;;;;26.86;43.80;101120.34;4999273;28;20496;-45
2021/07/10 05:02:36;;;;;;;27.77;16.13;;;;;;;26.44;44.70;101121.16;4997954;28;20789;-48
2021/07/10 05:05:05;;;;;;;28.93;18.13;;;;;;;26.73;43.99;101110.00;4998979;28;20985;-44
2021/07/10 05:07:38;;;;;;;29.60;18.40;;;;;;;27.07;43.02;101119.91;4997633;28;20509;-46
2021/07/10 05:10:07;;;;;;;32.60;18.77;;;;;;;27.12;42.69;101111.84;4999133;28;20961;-47
2021/07/10 05:12:35;;;;;;;29.80;18.20;;;;;;;27.21;42.76;101113.41;4998065;28;20514;-46
2021/07/10 05:15:03;;;;;;;34.77;19.20;;;;;;;27.39;42.50;101109.50;4999216;28;20463;-44
2021/07/10 05:17:31;;;;;;;34.33;18.43;;;;;;;27.54;42.04;101102.97;4997279;28;20498;-46
2021/07/10 05:19:58;;;;;;;29.20;17.20;;;;;;;26.78;43.80;101100.22;4998868;28;20476;-45
2021/07/10 05:22:27;;;;;;;34.67;16.90;;;;;;;27.36;42.56;101097.19;4997087;28;20820;-46
2021/07/10 05:24:56;;;;;;;25.50;16.00;;;;;;;27.71;42.30;101096.41;4998911;28;20475;-47
2021/07/10 05:27:24;;;;;;;29.17;16.43;;;;;;;27.57;42.40;101094.97;4997298;28;20490;-45
2021/07/10 05:29:51;;;;;;;32.33;17.20;;;;;;;27.76;41.65;101099.81;4998680;28;20478;-45
2021/07/10 05:32:19;;;;;;;24.67;15.93;;;;;;;27.28;42.78;101109.72;4997242;28;20983;-44
2021/07/10 05:34:47;;;;;;;22.17;14.67;;;;;;;27.22;43.36;101105.44;4998806;28;20479;-44
2021/07/10 05:37:14;;;;;;;22.13;14.60;;;;;;;27.22;43.08;101109.91;4997184;28;20485;-45
2021/07/10 05:39:42;;;;;;;22.00;13.33;;;;;;;27.23;43.37;101106.34;4997946;28;20934;-43
2021/07/10 05:42:11;;;;;;;23.90;14.57;;;;;;;27.45;43.15;101105.81;4999980;28;20867;-46
2021/07/10 05:44:39;;;;;;;25.80;15.53;;;;;;;27.34;42.90;101111.38;4998728;28;20470;-44
2021/07/10 05:47:06;;;;;;;25.10;15.60;;;;;;;27.70;42.60;101115.88;4996703;28;20485;-45
2021/07/10 05:49:34;;;;;;;23.37;13.50;;;;;;;27.53;42.90;101111.81;4998664;28;20497;-44
2021/07/10 05:52:02;;;;;;;29.20;14.97;;;;;;;27.68;41.71;101107.94;4997280;28;20489;-45
2021/07/10 05:54:29;;;;;;;24.47;13.83;;;;;;;27.84;41.58;101111.09;4998460;28;20546;-46
2021/07/10 05:56:57;;;;;;;42.90;24.83;;;;;;;28.05;41.80;101111.47;4996591;28;20934;-46
2021/07/10 05:59:26;;;;;;;19.87;13.60;;;;;;;27.44;42.55;101114.69;4998057;28;20545;-43
2021/07/10 06:01:53;;;;;;;21.90;12.43;;;;;;;27.71;41.81;101113.19;4997076;28;20519;-44
2021/07/10 06:04:21;;;;;;;20.90;14.37;;;;;;;27.90;41.50;101115.38;4998320;28;20465;-46
2021/07/10 06:06:50;;;;;;;25.53;14.83;;;;;;;28.38;41.55;101108.84;4996619;28;20793;-45
2021/07/10 06:09:17;;;;;;;19.33;13.00;;;;;;;28.27;41.19;101113.56;4997954;28;20458;-45
2021/07/10 06:11:45;;;;;;;24.50;13.93;;;;;;;27.94;41.68;101116.16;4996753;28;20483;-46
2021/07/10 06:14:12;;;;;;;18.70;12.30;;;;;;;27.92;41.73;101120.66;5000715;28;20457;-46
2021/07/10 06:16:46;;;;;;;21.57;11.27;;;;;;;28.07;41.25;101114.94;4993153;28;20571;-47
2021/07/10 06:19:13;;;;;;;17.10;11.90;;;;;;;27.89;41.48;101111.84;5006220;28;20951;-45
2021/07/10 06:21:41;;;;;;;16.80;11.07;;;;;;;27.73;41.65;101115.81;4996272;28;20484;-43
2021/07/10 06:24:09;;;;;;;17.90;10.53;;;;;;;28.24;40.89;101108.34;4997708;28;20463;-43
2021/07/10 06:26:36;;;;;;;17.00;10.13;;;;;;;27.89;42.23;101111.84;4999823;28;20565;-43
2021/07/10 06:29:05;;;;;;;17.90;11.57;;;;;;;28.47;40.95;101112.16;5006273;28;20473;-43
2021/07/10 06:31:32;;;;;;;22.60;11.17;;;;;;;28.56;40.41;101111.91;5013858;28;20505;-43
2021/07/10 06:34:03;;;;;;;17.20;10.60;;;;;;;28.49;40.68;101119.16;5014164;28;20464;-46
2021/07/10 06:36:32;;;;;;;16.20;9.90;;;;;;;28.65;40.49;101124.03;4995924;28;20466;-45
2021/07/10 06:39:00;;;;;;;23.17;11.37;;;;;;;29.24;39.11;101120.56;4991944;28;20564;-43
2021/07/10 06:41:27;;;;;;;17.67;9.50;;;;;;;28.56;40.24;101125.16;4996934;28;20493;-48
2021/07/10 06:43:55;;;;;;;21.33;10.20;;;;;;;28.35;40.19;101129.28;5007819;28;20465;-43
2021/07/10 06:46:22;;;;;;;33.90;12.77;;;;;;;28.30;40.89;101138.22;4996284;28;20950;-44
2021/07/10 06:48:50;;;;;;;17.33;9.90;;;;;;;28.52;40.88;101132.34;4986699;28;20558;-44
2021/07/10 06:51:19;;;;;;;15.33;9.50;;;;;;;28.39;40.84;101141.53;4984490;28;20497;-43
2021/07/10 06:53:47;;;;;;;17.87;9.40;;;;;;;28.12;41.79;101138.66;4992582;28;20471;-43
2021/07/10 06:56:15;;;;;;;28.63;11.33;;;;;;;28.49;40.31;101136.88;4984086;28;20942;-44
2021/07/10 06:58:42;;;;;;;13.80;8.63;;;;;;;28.47;40.41;101139.56;4986193;28;20474;-44
2021/07/10 07:01:10;;;;;;;12.70;9.30;;;;;;;28.73;40.42;101139.72;4976972;28;20501;-45
2021/07/10 07:03:37;;;;;;;16.40;10.37;;;;;;;28.80;39.76;101134.19;4983396;28;20475;-43
2021/07/10 07:06:05;;;;;;;13.30;8.10;;;;;;;28.53;40.29;101134.09;4982511;28;20463;-47
2021/07/10 07:08:34;;;;;;;26.53;16.20;;;;;;;28.42;40.07;101147.66;4996446;28;20466;-46
2021/07/10 07:11:01;;;;;;;15.67;10.37;;;;;;;28.42;40.38;101146.75;4991022;28;20479;-44
2021/07/10 07:13:29;;;;;;;18.00;10.30;;;;;;;28.47;39.97;101146.63;4980420;28;20494;-44
2021/07/10 07:15:57;;;;;;;21.37;11.60;;;;;;;28.53;39.58;101144.69;4996553;28;20493;-43
2021/07/10 07:18:24;;;;;;;16.63;8.70;;;;;;;28.56;40.34;101149.03;4989662;28;20479;-44
2021/07/10 07:21:05;;;;;;;26.80;12.03;;;;;;;28.11;40.26;101156.38;4987157;28;20487;-44
2021/07/10 07:23:34;;;;;;;13.20;8.60;;;;;;;27.93;41.20;101159.50;4994468;28;20468;-47
2021/07/10 07:26:02;;;;;;;15.20;9.53;;;;;;;28.33;40.45;101170.88;4983693;28;20772;-45
2021/07/10 07:28:29;;;;;;;15.03;9.67;;;;;;;28.84;39.71;101159.75;4978375;28;20601;-43
2021/07/10 07:30:57;;;;;;;15.73;10.30;;;;;;;28.50;41.07;101165.13;4985846;28;20494;-43
2021/07/10 07:33:27;;;;;;;14.87;10.20;;;;;;;28.22;41.02;101176.47;4998820;28;20486;-45
2021/07/10 07:36:00;;;;;;;17.63;10.20;;;;;;;28.11;40.69;101168.75;4995220;28;20904;-45
2021/07/10 07:38:27;;;;;;;14.93;10.80;;;;;;;28.33;41.34;101179.72;4994076;28;20531;-44
2021/07/10 07:40:56;;;;;;;17.63;9.53;;;;;;;28.19;40.81;101173.88;4992710;28;20507;-47
2021/07/10 07:43:24;;;;;;;18.37;9.73;;;;;;;28.73;40.10;101160.94;4988393;28;20796;-43
2021/07/10 07:45:52;;;;;;;15.93;9.90;;;;;;;28.90;39.97;101169.34;4976681;28;20489;-43
2021/07/10 07:48:20;;;;;;;13.10;9.77;;;;;;;29.00;40.03;101169.09;4975094;28;20503;-44
2021/07/10 07:50:49;;;;;;;21.93;11.77;;;;;;;28.55;40.15;101166.75;4990255;28;20488;-44
2021/07/10 07:53:18;;;;;;;23.03;11.60;;;;;;;28.91;40.12;101168.41;5014341;28;20568;-43
2021/07/10 07:55:46;;;;;;;15.03;9.00;;;;;;;28.32;41.38;101172.66;5015329;28;20454;-44
2021/07/10 07:58:15;;;;;;;17.40;9.80;;;;;;;28.67;39.97;101172.63;5014239;28;20487;-43
2021/07/10 08:00:43;;;;;;;17.87;11.03;;;;;;;29.04;39.21;101170.72;5015593;28;20501;-44
2021/07/10 08:03:11;;;;;;;12.80;9.00;;;;;;;29.02;39.78;101177.88;5014047;28;20940;-44
2021/07/10 08:05:38;;;;;;;15.83;10.07;;;;;;;29.23;39.40;101176.38;5014506;28;20464;-45
2021/07/10 08:08:07;;;;;;;15.47;10.07;;;;;;;29.03;38.63;101180.50;5018245;28;20952;-44
2021/07/10 08:10:35;;;;;;;17.00;8.80;;;;;;;28.93;39.39;101182.53;5015612;28;20487;-45
2021/07/10 08:13:02;;;;;;;12.67;8.40;;;;;;;29.10;39.13;101174.06;5008988;28;20484;-43
2021/07/10 08:15:32;;;;;;;18.73;11.00;;;;;;;29.33;38.66;101182.28;4993503;28;20561;-44
2021/07/10 08:18:00;;;;;;;14.63;8.70;;;;;;;29.02;38.62;101177.88;4972777;28;20832;-44
2021/07/10 08:20:27;;;;;;;12.40;8.83;;;;;;;28.42;39.46;101190.09;4986841;28;20620;-43
2021/07/10 08:22:55;;;;;;;14.90;9.40;;;;;;;28.84;39.17;101182.75;4982400;28;21006;-43
2021/07/10 08:25:24;;;;;;;15.73;8.93;;;;;;;29.16;38.46;101173.00;4978673;28;20471;-46
2021/07/10 08:27:52;;;;;;;13.40;7.87;;;;;;;28.98;39.07;101183.25;4999797;28;20484;-43
2021/07/10 08:30:20;;;;;;;13.60;9.20;;;;;;;28.39;39.83;101190.16;4995857;28;20484;-42
2021/07/10 08:32:50;;;;;;;12.20;7.60;;;;;;;28.19;39.85;101187.13;4990811;28;20477;-43
2021/07/10 08:35:19;;;;;;;11.03;6.93;;;;;;;28.42;39.23;101183.91;4976213;28;20900;-43
2021/07/10 08:37:47;;;;;;;9.17;6.63;;;;;;;28.62;39.29;101185.16;4974916;28;21021;-46
2021/07/10 08:40:17;;;;;;;10.13;7.30;;;;;;;28.40;39.32;101191.91;4976579;28;20561;-47
2021/07/10 08:42:45;;;;;;;11.33;6.47;;;;;;;29.03;38.60;101179.59;4973580;28;20798;-46
2021/07/10 08:45:14;;;;;;;15.57;7.43;;;;;;;29.09;37.82;101177.66;4976947;28;20470;-45
2021/07/10 08:47:43;;;;;;;9.90;7.00;;;;;;;29.77;37.20;101177.38;4974564;28;20493;-43
2021/07/10 08:50:14;;;;;;;11.63;6.03;;;;;;;29.16;37.43;101175.66;4989642;28;20489;-45
2021/07/10 08:52:41;;;;;;;8.37;5.83;;;;;;;29.28;37.24;101178.88;5008910;28;20492;-48
2021/07/10 08:55:11;;;;;;;12.07;5.83;;;;;;;28.44;39.47;101182.06;4978587;28;20468;-46
2021/07/10 08:57:40;;;;;;;8.70;5.67;;;;;;;29.22;37.57;101178.16;4968964;28;20872;-46
2021/07/10 09:00:10;;;;;;;6.70;5.73;;;;;;;28.78;37.62;101180.28;4986280;28;20516;-44
2021/07/10 09:02:41;;;;;;;13.33;6.70;;;;;;;28.97;37.63;101176.22;4994261;28;20608;-44
2021/07/10 09:05:09;;;;;;;9.17;5.77;;;;;;;28.81;38.13;101175.75;4995487;28;20474;-47
2021/07/10 09:08:12;;;;;;;15.00;6.77;;;;;;;29.45;37.18;101165.94;4993776;28;20963;-46
2021/07/10 09:10:41;;;;;;;10.30;5.53;;;;;;;28.84;37.59;101165.06;4995136;28;20500;-46
2021/07/10 09:13:09;;;;;;;7.80;5.00;;;;;;;28.69;37.91;101179.63;4994017;28;20486;-45
2021/07/10 09:15:37;;;;;;;12.63;6.00;;;;;;;29.11;37.02;101172.28;4996673;28;20459;-44
2021/07/10 09:18:07;;;;;;;13.73;6.47;;;;;;;30.14;35.49;101166.47;4997642;28;20493;-45
2021/07/10 09:20:36;;;;;;;9.60;6.00;;;;;;;29.74;35.70;101165.97;4998803;28;20471;-47
2021/07/10 09:23:24;;;;;;;8.73;6.50;;;;;;;30.50;35.46;101162.56;4997342;28;20491;-51
2021/07/10 09:25:52;;;;;;;9.77;5.57;;;;;;;29.49;36.55;101156.97;5000654;28;20489;-49
2021/07/10 09:28:28;;;;;;;12.17;5.97;;;;;;;30.08;35.29;101163.97;4998224;28;20963;-45
2021/07/10 09:30:55;;;;;;;10.80;6.40;;;;;;;29.91;34.87;101158.31;4997468;28;20471;-44
2021/07/10 09:33:23;;;;;;;8.03;5.60;;;;;;;30.15;34.99;101160.22;4998653;28;20586;-48
2021/07/10 09:35:53;;;;;;;9.33;5.73;;;;;;;30.53;34.39;101157.09;4998175;28;20460;-45
2021/07/10 09:38:22;;;;;;;8.93;6.33;;;;;;;30.00;36.00;101150.94;4978923;28;20464;-47
2021/07/10 09:41:03;;;;;;;14.20;6.60;;;;;;;30.90;34.61;101146.94;4979452;28;20492;-45
2021/07/10 09:43:32;;;;;;;8.30;5.63;;;;;;;30.87;35.54;101149.72;4998003;28;20467;-50
2021/07/10 09:46:04;;;;;;;12.40;6.50;;;;;;;30.67;35.72;101156.63;4997023;28;20898;-45
2021/07/10 09:48:34;;;;;;;18.03;7.73;;;;;;;30.00;36.07;101157.09;4998068;28;20488;-45
2021/07/10 09:51:19;;;;;;;16.53;8.47;;;;;;;30.50;35.31;101155.44;5012390;28;20478;-48
2021/07/10 09:53:59;;;;;;;9.40;6.10;;;;;;;29.20;37.50;101153.44;5018086;28;20460;-46
2021/07/10 09:56:28;;;;;;;11.67;5.97;;;;;;;30.77;35.63;101163.38;5016247;28;20479;-46
2021/07/10 09:58:56;;;;;;;17.40;6.50;;;;;;;31.09;34.59;101168.41;5017750;28;20455;-47
2021/07/10 10:01:32;;;;;;;10.20;6.47;;;;;;;30.27;35.48;101166.88;5016231;28;20479;-47
2021/07/10 10:04:01;;;;;;;11.00;7.27;;;;;;;30.36;35.34;101163.91;5018026;28;20479;-48
2021/07/10 10:06:33;;;;;;;18.70;7.53;;;;;;;29.92;35.91;101169.78;5016014;28;20480;-46
2021/07/10 10:09:03;;;;;;;10.37;6.93;;;;;;;30.18;36.04;101168.06;5017594;28;20506;-45
2021/07/10 10:12:06;;;;;;;9.30;6.70;;;;;;;30.76;35.08;101164.28;5015099;28;20492;-47
2021/07/10 10:14:36;;;;;;;12.20;7.30;;;;;;;30.31;35.18;101172.03;4918985;29;20471;-45
2021/07/10 10:17:04;;;;;;;17.03;12.17;;;;;;;30.42;34.90;101168.16;4917386;29;20490;-46
2021/07/10 10:19:33;;;;;;;9.57;6.50;;;;;;;30.88;32.58;101175.41;4947591;28;20477;-46
2021/07/10 10:22:03;;;;;;;11.83;7.30;;;;;;;31.26;33.50;101165.06;4977065;28;20910;-46
2021/07/10 10:24:31;;;;;;;10.90;7.63;;;;;;;30.68;34.08;101171.69;4978436;28;20759;-46
2021/07/10 10:27:00;;;;;;;18.70;11.00;;;;;;;30.55;35.17;101169.44;4975865;28;20474;-47
2021/07/10 10:29:30;;;;;;;12.00;7.93;;;;;;;30.33;34.47;101165.81;4992757;28;20496;-47
2021/07/10 10:31:58;;;;;;;12.00;7.30;;;;;;;31.68;32.81;101175.91;4996335;28;20489;-46
2021/07/10 10:34:26;;;;;;;15.67;8.47;;;;;;;31.86;31.71;101172.53;4997330;28;20461;-43
2021/07/10 10:36:55;;;;;;;24.20;15.37;;;;;;;31.55;32.53;101160.41;4995786;28;20507;-44
2021/07/10 10:39:25;;;;;;;9.10;6.10;;;;;;;30.97;33.35;101169.75;4997346;28;20580;-45
2021/07/10 10:41:57;;;;;;;9.00;6.20;;;;;;;30.57;34.04;101170.28;4996205;28;20499;-43
2021/07/10 10:44:25;;;;;;;11.10;7.00;;;;;;;30.54;33.52;101170.38;4997173;28;20957;-43
2021/07/10 10:46:57;;;;;;;17.20;8.27;;;;;;;29.73;33.88;101173.06;4995158;28;20939;-47
2021/07/10 10:49:37;;;;;;;10.90;7.03;;;;;;;30.79;32.98;101169.50;4999282;28;20489;-43
2021/07/10 10:52:35;;;;;;;11.23;7.37;;;;;;;31.36;31.78;101169.16;4996243;28;20930;-46
2021/07/10 10:55:16;;;;;;;10.90;7.10;;;;;;;31.63;31.79;101174.28;4944863;28;20465;-43
2021/07/10 10:57:47;;;;;;;9.57;6.10;;;;;;;31.83;31.83;101175.28;5000903;28;20508;-46
2021/07/10 11:00:34;;;;;;;11.93;6.80;;;;;;;31.54;31.89;101172.03;5002797;28;20496;-45
2021/07/10 11:03:09;;;;;;;8.43;5.60;;;;;;;30.97;32.86;101183.06;4995132;28;20478;-44
2021/07/10 11:05:53;;;;;;;8.53;5.97;;;;;;;31.07;32.56;101181.75;5010410;28;20456;-44
2021/07/10 11:08:22;;;;;;;8.53;5.83;;;;;;;31.41;31.54;101176.09;5015820;28;20473;-47
2021/07/10 11:11:19;;;;;;;8.60;4.97;;;;;;;31.31;31.58;101178.28;5016053;28;20485;-46
2021/07/10 11:14:19;;;;;;;10.30;4.80;;;;;;;30.57;32.41;101172.94;4979887;28;20462;-44
2021/07/10 11:17:04;;;;;;;9.80;4.97;;;;;;;31.41;32.59;101173.44;5002440;28;20484;-44
2021/07/10 11:19:53;;;;;;;7.33;3.90;;;;;;;30.75;31.63;101175.00;4999975;28;20522;-43
2021/07/10 11:23:02;;;;;;;6.63;4.10;;;;;;;31.55;30.55;101179.09;4994849;28;20493;-44